createdAt,value
2023-04-01T00:01:22.947Z,7.74
2023-04-01T00:03:49.591Z,7.72
2023-04-01T00:06:17.290Z,7.72
2023-04-01T00:08:43.729Z,7.49
2023-04-01T00:11:10.132Z,7.56
2023-04-01T00:13:36.553Z,7.64
2023-04-01T00:16:03.609Z,7.63
2023-04-01T00:18:30.392Z,7.64
2023-04-01T00:20:56.729Z,7.75
2023-04-01T00:23:23.100Z,7.79
2023-04-01T00:25:49.510Z,7.72
2023-04-01T00:28:15.902Z,7.74
2023-04-01T00:30:42.585Z,7.71
2023-04-01T00:33:09.307Z,7.74
2023-04-01T00:35:35.718Z,7.78
2023-04-01T00:38:02.169Z,7.71
2023-04-01T00:48:32.177Z,7.70
2023-04-01T01:04:29.775Z,7.89
2023-04-01T01:06:56.174Z,7.94
2023-04-01T01:09:22.546Z,7.84
2023-04-01T01:14:30.177Z,8.02
2023-04-01T01:16:56.700Z,7.94
2023-04-01T01:19:23.176Z,8.05
2023-04-01T01:21:49.734Z,8.14
2023-04-01T01:24:16.186Z,8.01
2023-04-01T01:26:42.572Z,7.87
2023-04-01T01:29:08.916Z,7.99
2023-04-01T01:55:50.978Z,7.87
2023-04-01T01:58:17.361Z,7.71
2023-04-01T02:00:43.860Z,7.85
2023-04-01T02:03:10.237Z,7.87
2023-04-01T02:05:36.669Z,7.90
2023-04-01T02:08:03.061Z,7.94
2023-04-01T02:10:29.442Z,7.91
2023-04-01T02:12:55.782Z,7.69
2023-04-01T02:15:22.339Z,7.87
2023-04-01T02:17:48.711Z,7.86
2023-04-01T02:20:15.090Z,7.79
2023-04-01T02:22:41.669Z,7.81
2023-04-01T02:25:08.051Z,7.82
2023-04-01T02:27:34.430Z,7.90
2023-04-01T02:30:00.940Z,7.79
2023-04-01T02:32:27.409Z,7.72
2023-04-01T02:34:53.830Z,7.73
2023-04-01T02:37:20.650Z,7.75
2023-04-01T02:39:47.027Z,7.70
2023-04-01T02:42:13.442Z,7.63
2023-04-01T02:44:39.828Z,7.68
2023-04-01T02:47:06.262Z,7.64
2023-04-01T02:49:32.739Z,7.69
2023-04-01T02:51:59.134Z,7.65
2023-04-01T02:54:34.036Z,7.63
2023-04-01T02:57:00.370Z,7.58
2023-04-01T02:59:26.748Z,7.63
2023-04-01T03:01:53.349Z,7.70
2023-04-01T03:04:19.815Z,7.51
2023-04-01T03:06:46.300Z,7.77
2023-04-01T03:09:13.207Z,7.80
2023-04-01T03:11:39.695Z,7.79
2023-04-01T03:14:06.246Z,7.77
2023-04-01T03:16:32.698Z,7.83
2023-04-01T04:28:35.956Z,7.45
2023-04-01T04:44:28.731Z,7.37
2023-04-01T04:49:35.767Z,7.21
2023-04-01T04:52:06.078Z,7.19
2023-04-01T04:54:32.687Z,7.15
2023-04-01T04:56:59.227Z,7.17
2023-04-01T04:59:25.956Z,7.25
2023-04-01T05:01:52.606Z,7.18
2023-04-01T05:04:19.427Z,7.12
2023-04-01T05:06:46.678Z,7.08
2023-04-01T05:09:14.916Z,7.18
2023-04-01T05:11:41.378Z,7.43
2023-04-01T05:14:08.229Z,7.37
2023-04-01T05:16:35.006Z,7.43
2023-04-01T05:19:01.418Z,7.31
2023-04-01T05:21:27.906Z,7.36
2023-04-01T05:23:54.598Z,7.46
2023-04-01T05:26:21.154Z,7.47
